sensor_id;sensor_type;location;lat;lon;timestamp;P1;durP1;ratioP1;P2;durP2;ratioP2
48629;SDS011;34426;52.180;4.462;2022-12-10T00:01:32;275.17;;;53.92;;
48629;SDS011;34426;52.180;4.462;2022-12-10T00:04:00;248.20;;;53.40;;
48629;SDS011;34426;52.180;4.462;2022-12-10T00:06:29;275.48;;;55.33;;
48629;SDS011;34426;52.180;4.462;2022-12-10T00:08:58;184.18;;;54.85;;
48629;SDS011;34426;52.180;4.462;2022-12-10T00:11:29;228.52;;;56.75;;
48629;SDS011;34426;52.180;4.462;2022-12-10T00:13:57;255.18;;;55.75;;
48629;SDS011;34426;52.180;4.462;2022-12-10T00:16:26;226.38;;;58.25;;
48629;SDS011;34426;52.180;4.462;2022-12-10T00:18:54;166.52;;;57.13;;
48629;SDS011;34426;52.180;4.462;2022-12-10T00:21:22;182.75;;;58.05;;
48629;SDS011;34426;52.180;4.462;2022-12-10T00:23:51;216.30;;;59.40;;
48629;SDS011;34426;52.180;4.462;2022-12-10T00:26:19;178.32;;;58.17;;
48629;SDS011;34426;52.180;4.462;2022-12-10T00:28:49;196.07;;;59.40;;
48629;SDS011;34426;52.180;4.462;2022-12-10T00:31:17;179.55;;;59.15;;
48629;SDS011;34426;52.180;4.462;2022-12-10T00:33:46;161.55;;;59.05;;
48629;SDS011;34426;52.180;4.462;2022-12-10T00:36:14;163.80;;;60.03;;
48629;SDS011;34426;52.180;4.462;2022-12-10T00:38:43;165.38;;;63.25;;
48629;SDS011;34426;52.180;4.462;2022-12-10T00:41:12;178.07;;;62.15;;
48629;SDS011;34426;52.180;4.462;2022-12-10T00:43:39;176.02;;;61.40;;
48629;SDS011;34426;52.180;4.462;2022-12-10T00:46:09;172.90;;;65.13;;
48629;SDS011;34426;52.180;4.462;2022-12-10T00:48:37;170.77;;;65.15;;
48629;SDS011;34426;52.180;4.462;2022-12-10T00:51:05;173.55;;;66.28;;
48629;SDS011;34426;52.180;4.462;2022-12-10T00:53:35;172.93;;;68.72;;
48629;SDS011;34426;52.180;4.462;2022-12-10T00:56:04;181.90;;;72.72;;
48629;SDS011;34426;52.180;4.462;2022-12-10T00:58:32;169.07;;;69.93;;
48629;SDS011;34426;52.180;4.462;2022-12-10T01:01:10;171.13;;;68.75;;
48629;SDS011;34426;52.180;4.462;2022-12-10T01:03:40;171.68;;;68.55;;
48629;SDS011;34426;52.180;4.462;2022-12-10T01:06:09;168.93;;;69.15;;
48629;SDS011;34426;52.180;4.462;2022-12-10T01:08:37;179.32;;;69.32;;
48629;SDS011;34426;52.180;4.462;2022-12-10T01:11:05;165.18;;;68.05;;
48629;SDS011;34426;52.180;4.462;2022-12-10T01:13:34;155.25;;;68.75;;
48629;SDS011;34426;52.180;4.462;2022-12-10T01:16:02;159.77;;;67.20;;
48629;SDS011;34426;52.180;4.462;2022-12-10T01:18:33;159.48;;;69.25;;
48629;SDS011;34426;52.180;4.462;2022-12-10T01:21:02;170.48;;;70.28;;
48629;SDS011;34426;52.180;4.462;2022-12-10T01:23:31;161.75;;;67.15;;
48629;SDS011;34426;52.180;4.462;2022-12-10T01:26:00;170.25;;;71.28;;
48629;SDS011;34426;52.180;4.462;2022-12-10T01:28:29;168.00;;;68.75;;
48629;SDS011;34426;52.180;4.462;2022-12-10T01:31:01;170.88;;;67.13;;
48629;SDS011;34426;52.180;4.462;2022-12-10T01:33:30;163.82;;;68.90;;
48629;SDS011;34426;52.180;4.462;2022-12-10T01:36:02;172.98;;;70.63;;
48629;SDS011;34426;52.180;4.462;2022-12-10T01:38:30;156.07;;;68.22;;
48629;SDS011;34426;52.180;4.462;2022-12-10T01:40:58;162.80;;;65.95;;
48629;SDS011;34426;52.180;4.462;2022-12-10T01:43:47;167.00;;;68.32;;
48629;SDS011;34426;52.180;4.462;2022-12-10T01:46:17;161.80;;;65.43;;
48629;SDS011;34426;52.180;4.462;2022-12-10T01:48:46;165.85;;;69.65;;
48629;SDS011;34426;52.180;4.462;2022-12-10T01:51:13;170.98;;;66.68;;
48629;SDS011;34426;52.180;4.462;2022-12-10T01:53:41;166.40;;;69.38;;
48629;SDS011;34426;52.180;4.462;2022-12-10T01:56:10;174.75;;;65.55;;
48629;SDS011;34426;52.180;4.462;2022-12-10T01:58:38;169.15;;;67.93;;
48629;SDS011;34426;52.180;4.462;2022-12-10T02:01:07;187.63;;;66.05;;
48629;SDS011;34426;52.180;4.462;2022-12-10T02:03:40;151.88;;;63.72;;
48629;SDS011;34426;52.180;4.462;2022-12-10T02:06:25;175.40;;;66.45;;
48629;SDS011;34426;52.180;4.462;2022-12-10T02:09:04;225.95;;;64.80;;
48629;SDS011;34426;52.180;4.462;2022-12-10T02:11:40;168.63;;;64.60;;
48629;SDS011;34426;52.180;4.462;2022-12-10T02:14:11;178.63;;;66.22;;
48629;SDS011;34426;52.180;4.462;2022-12-10T02:16:44;188.18;;;67.32;;
48629;SDS011;34426;52.180;4.462;2022-12-10T02:19:21;156.13;;;65.20;;
48629;SDS011;34426;52.180;4.462;2022-12-10T02:22:00;202.38;;;65.28;;
48629;SDS011;34426;52.180;4.462;2022-12-10T02:24:29;164.40;;;64.63;;
48629;SDS011;34426;52.180;4.462;2022-12-10T02:27:00;254.68;;;64.88;;
48629;SDS011;34426;52.180;4.462;2022-12-10T02:29:36;180.10;;;60.53;;
48629;SDS011;34426;52.180;4.462;2022-12-10T02:32:05;168.20;;;60.97;;
48629;SDS011;34426;52.180;4.462;2022-12-10T02:34:35;234.02;;;61.25;;
48629;SDS011;34426;52.180;4.462;2022-12-10T02:37:08;169.48;;;59.28;;
48629;SDS011;34426;52.180;4.462;2022-12-10T02:39:41;157.30;;;55.42;;
48629;SDS011;34426;52.180;4.462;2022-12-10T02:44:43;265.02;;;59.58;;
48629;SDS011;34426;52.180;4.462;2022-12-10T02:47:13;154.93;;;59.60;;
48629;SDS011;34426;52.180;4.462;2022-12-10T02:49:42;186.82;;;57.42;;
48629;SDS011;34426;52.180;4.462;2022-12-10T02:52:13;163.02;;;57.47;;
48629;SDS011;34426;52.180;4.462;2022-12-10T02:54:44;215.68;;;59.63;;
48629;SDS011;34426;52.180;4.462;2022-12-10T02:57:22;273.77;;;60.25;;
48629;SDS011;34426;52.180;4.462;2022-12-10T03:00:00;174.35;;;56.70;;
48629;SDS011;34426;52.180;4.462;2022-12-10T03:02:33;166.95;;;58.47;;
48629;SDS011;34426;52.180;4.462;2022-12-10T03:05:09;178.23;;;58.60;;
48629;SDS011;34426;52.180;4.462;2022-12-10T03:07:46;201.65;;;57.65;;
48629;SDS011;34426;52.180;4.462;2022-12-10T03:10:24;214.38;;;57.42;;
48629;SDS011;34426;52.180;4.462;2022-12-10T03:12:57;154.10;;;57.28;;
48629;SDS011;34426;52.180;4.462;2022-12-10T03:15:29;246.35;;;58.13;;
48629;SDS011;34426;52.180;4.462;2022-12-10T03:20:26;255.02;;;56.35;;
48629;SDS011;34426;52.180;4.462;2022-12-10T03:22:56;253.90;;;57.25;;
48629;SDS011;34426;52.180;4.462;2022-12-10T03:25:26;202.13;;;59.92;;
48629;SDS011;34426;52.180;4.462;2022-12-10T03:27:56;228.68;;;57.45;;
48629;SDS011;34426;52.180;4.462;2022-12-10T03:30:28;446.95;;;56.83;;
48629;SDS011;34426;52.180;4.462;2022-12-10T03:32:58;297.48;;;56.55;;
48629;SDS011;34426;52.180;4.462;2022-12-10T03:35:25;265.85;;;55.00;;
48629;SDS011;34426;52.180;4.462;2022-12-10T03:37:53;128.13;;;51.90;;
48629;SDS011;34426;52.180;4.462;2022-12-10T03:40:22;209.63;;;57.13;;
48629;SDS011;34426;52.180;4.462;2022-12-10T03:42:51;233.10;;;55.85;;
48629;SDS011;34426;52.180;4.462;2022-12-10T03:45:19;149.48;;;54.45;;
48629;SDS011;34426;52.180;4.462;2022-12-10T03:47:48;141.98;;;53.83;;
48629;SDS011;34426;52.180;4.462;2022-12-10T03:50:16;274.30;;;56.33;;
48629;SDS011;34426;52.180;4.462;2022-12-10T03:52:43;144.60;;;51.10;;
48629;SDS011;34426;52.180;4.462;2022-12-10T03:55:11;163.65;;;53.70;;
48629;SDS011;34426;52.180;4.462;2022-12-10T03:57:38;227.07;;;54.28;;
48629;SDS011;34426;52.180;4.462;2022-12-10T04:00:06;269.38;;;52.20;;
48629;SDS011;34426;52.180;4.462;2022-12-10T04:02:33;104.90;;;49.90;;
48629;SDS011;34426;52.180;4.462;2022-12-10T04:05:02;270.35;;;51.90;;
48629;SDS011;34426;52.180;4.462;2022-12-10T04:07:30;112.45;;;52.15;;
48629;SDS011;34426;52.180;4.462;2022-12-10T04:09:57;184.73;;;46.15;;
48629;SDS011;34426;52.180;4.462;2022-12-10T04:12:25;232.40;;;48.20;;
48629;SDS011;34426;52.180;4.462;2022-12-10T04:14:52;124.38;;;45.10;;
48629;SDS011;34426;52.180;4.462;2022-12-10T04:17:20;266.25;;;48.15;;
48629;SDS011;34426;52.180;4.462;2022-12-10T04:19:48;178.13;;;45.85;;
48629;SDS011;34426;52.180;4.462;2022-12-10T04:22:18;130.65;;;45.05;;
48629;SDS011;34426;52.180;4.462;2022-12-10T04:24:45;252.73;;;45.13;;
48629;SDS011;34426;52.180;4.462;2022-12-10T04:27:15;136.93;;;45.13;;
48629;SDS011;34426;52.180;4.462;2022-12-10T04:29:46;220.30;;;47.38;;
48629;SDS011;34426;52.180;4.462;2022-12-10T04:32:14;162.55;;;47.63;;
48629;SDS011;34426;52.180;4.462;2022-12-10T04:34:42;120.43;;;47.25;;
48629;SDS011;34426;52.180;4.462;2022-12-10T04:37:10;231.70;;;48.53;;
48629;SDS011;34426;52.180;4.462;2022-12-10T04:39:40;317.88;;;49.00;;
48629;SDS011;34426;52.180;4.462;2022-12-10T04:42:07;227.52;;;49.80;;
48629;SDS011;34426;52.180;4.462;2022-12-10T04:44:34;212.32;;;47.60;;
48629;SDS011;34426;52.180;4.462;2022-12-10T04:47:03;236.13;;;48.60;;
48629;SDS011;34426;52.180;4.462;2022-12-10T04:49:31;189.23;;;48.50;;
48629;SDS011;34426;52.180;4.462;2022-12-10T04:51:59;180.70;;;48.47;;
48629;SDS011;34426;52.180;4.462;2022-12-10T04:54:26;196.80;;;50.60;;
48629;SDS011;34426;52.180;4.462;2022-12-10T04:56:56;187.13;;;48.28;;
48629;SDS011;34426;52.180;4.462;2022-12-10T04:59:23;269.42;;;52.00;;
48629;SDS011;34426;52.180;4.462;2022-12-10T05:01:51;116.22;;;48.65;;
48629;SDS011;34426;52.180;4.462;2022-12-10T05:04:18;109.15;;;49.45;;
48629;SDS011;34426;52.180;4.462;2022-12-10T05:06:47;174.82;;;47.97;;
48629;SDS011;34426;52.180;4.462;2022-12-10T05:09:15;284.52;;;49.00;;
48629;SDS011;34426;52.180;4.462;2022-12-10T05:11:43;289.48;;;48.53;;
48629;SDS011;34426;52.180;4.462;2022-12-10T05:14:12;113.20;;;48.17;;
48629;SDS011;34426;52.180;4.462;2022-12-10T05:16:40;269.35;;;50.47;;
48629;SDS011;34426;52.180;4.462;2022-12-10T05:19:08;182.80;;;49.22;;
48629;SDS011;34426;52.180;4.462;2022-12-10T05:21:36;125.68;;;50.22;;
48629;SDS011;34426;52.180;4.462;2022-12-10T05:24:03;318.33;;;50.83;;
48629;SDS011;34426;52.180;4.462;2022-12-10T05:26:31;197.52;;;49.38;;
48629;SDS011;34426;52.180;4.462;2022-12-10T05:28:58;105.45;;;47.40;;
48629;SDS011;34426;52.180;4.462;2022-12-10T05:31:28;149.68;;;49.08;;
48629;SDS011;34426;52.180;4.462;2022-12-10T05:33:56;112.40;;;49.90;;
48629;SDS011;34426;52.180;4.462;2022-12-10T05:36:24;159.32;;;47.30;;
48629;SDS011;34426;52.180;4.462;2022-12-10T05:38:53;112.90;;;47.28;;
48629;SDS011;34426;52.180;4.462;2022-12-10T05:41:21;113.43;;;46.95;;
48629;SDS011;34426;52.180;4.462;2022-12-10T05:43:50;171.40;;;47.95;;
48629;SDS011;34426;52.180;4.462;2022-12-10T05:46:19;210.95;;;48.72;;
48629;SDS011;34426;52.180;4.462;2022-12-10T05:48:49;131.65;;;45.83;;
48629;SDS011;34426;52.180;4.462;2022-12-10T05:51:18;103.50;;;45.40;;
48629;SDS011;34426;52.180;4.462;2022-12-10T05:53:47;98.57;;;44.80;;
48629;SDS011;34426;52.180;4.462;2022-12-10T05:56:18;163.32;;;47.50;;
48629;SDS011;34426;52.180;4.462;2022-12-10T05:58:48;114.25;;;44.83;;
48629;SDS011;34426;52.180;4.462;2022-12-10T06:01:16;104.13;;;45.70;;
48629;SDS011;34426;52.180;4.462;2022-12-10T06:03:45;119.45;;;46.63;;
48629;SDS011;34426;52.180;4.462;2022-12-10T06:06:19;119.82;;;45.70;;
48629;SDS011;34426;52.180;4.462;2022-12-10T06:08:47;314.77;;;44.00;;
48629;SDS011;34426;52.180;4.462;2022-12-10T06:11:15;132.15;;;42.70;;
48629;SDS011;34426;52.180;4.462;2022-12-10T06:13:42;108.97;;;44.22;;
48629;SDS011;34426;52.180;4.462;2022-12-10T06:16:10;130.30;;;45.25;;
48629;SDS011;34426;52.180;4.462;2022-12-10T06:18:41;193.45;;;45.35;;
48629;SDS011;34426;52.180;4.462;2022-12-10T06:21:10;202.45;;;43.97;;
48629;SDS011;34426;52.180;4.462;2022-12-10T06:23:40;173.05;;;42.55;;
48629;SDS011;34426;52.180;4.462;2022-12-10T06:26:08;127.05;;;42.45;;
48629;SDS011;34426;52.180;4.462;2022-12-10T06:28:37;91.63;;;40.33;;
48629;SDS011;34426;52.180;4.462;2022-12-10T06:31:05;88.68;;;40.72;;
48629;SDS011;34426;52.180;4.462;2022-12-10T06:33:33;188.73;;;42.20;;
48629;SDS011;34426;52.180;4.462;2022-12-10T06:36:02;115.60;;;39.72;;
48629;SDS011;34426;52.180;4.462;2022-12-10T06:38:31;116.65;;;40.88;;
48629;SDS011;34426;52.180;4.462;2022-12-10T06:41:01;170.05;;;41.42;;
48629;SDS011;34426;52.180;4.462;2022-12-10T06:43:30;146.77;;;40.38;;
48629;SDS011;34426;52.180;4.462;2022-12-10T06:45:58;116.65;;;40.63;;
48629;SDS011;34426;52.180;4.462;2022-12-10T06:48:29;132.18;;;39.80;;
48629;SDS011;34426;52.180;4.462;2022-12-10T06:50:56;383.92;;;44.45;;
48629;SDS011;34426;52.180;4.462;2022-12-10T06:53:24;281.02;;;41.33;;
48629;SDS011;34426;52.180;4.462;2022-12-10T06:55:52;123.38;;;39.45;;
48629;SDS011;34426;52.180;4.462;2022-12-10T06:58:21;71.95;;;38.88;;
48629;SDS011;34426;52.180;4.462;2022-12-10T07:00:48;97.90;;;39.00;;
48629;SDS011;34426;52.180;4.462;2022-12-10T07:03:16;77.40;;;38.05;;
48629;SDS011;34426;52.180;4.462;2022-12-10T07:05:44;88.30;;;37.50;;
48629;SDS011;34426;52.180;4.462;2022-12-10T07:08:11;124.32;;;40.08;;
48629;SDS011;34426;52.180;4.462;2022-12-10T07:10:39;104.32;;;39.05;;
48629;SDS011;34426;52.180;4.462;2022-12-10T07:13:06;83.25;;;38.97;;
48629;SDS011;34426;52.180;4.462;2022-12-10T07:15:35;97.05;;;41.47;;
48629;SDS011;34426;52.180;4.462;2022-12-10T07:18:03;71.10;;;37.55;;
48629;SDS011;34426;52.180;4.462;2022-12-10T07:20:30;97.18;;;37.97;;
48629;SDS011;34426;52.180;4.462;2022-12-10T07:22:58;78.10;;;37.75;;
48629;SDS011;34426;52.180;4.462;2022-12-10T07:25:25;110.90;;;42.38;;
48629;SDS011;34426;52.180;4.462;2022-12-10T07:27:53;84.93;;;39.00;;
48629;SDS011;34426;52.180;4.462;2022-12-10T07:30:20;80.88;;;39.00;;
48629;SDS011;34426;52.180;4.462;2022-12-10T07:32:49;93.93;;;41.13;;
48629;SDS011;34426;52.180;4.462;2022-12-10T07:35:17;137.50;;;41.67;;
48629;SDS011;34426;52.180;4.462;2022-12-10T07:37:44;104.90;;;42.03;;
48629;SDS011;34426;52.180;4.462;2022-12-10T07:40:11;210.98;;;41.85;;
48629;SDS011;34426;52.180;4.462;2022-12-10T07:42:39;118.65;;;39.13;;
48629;SDS011;34426;52.180;4.462;2022-12-10T07:45:06;124.60;;;40.40;;
48629;SDS011;34426;52.180;4.462;2022-12-10T07:47:34;113.45;;;40.72;;
48629;SDS011;34426;52.180;4.462;2022-12-10T07:50:04;94.25;;;41.92;;
48629;SDS011;34426;52.180;4.462;2022-12-10T07:52:32;87.13;;;41.42;;
48629;SDS011;34426;52.180;4.462;2022-12-10T07:54:59;90.95;;;41.38;;
48629;SDS011;34426;52.180;4.462;2022-12-10T07:57:28;111.95;;;42.22;;
48629;SDS011;34426;52.180;4.462;2022-12-10T07:59:55;103.15;;;43.90;;
48629;SDS011;34426;52.180;4.462;2022-12-10T08:02:23;201.27;;;45.83;;
48629;SDS011;34426;52.180;4.462;2022-12-10T08:04:50;142.00;;;44.72;;
48629;SDS011;34426;52.180;4.462;2022-12-10T08:07:19;95.55;;;42.85;;
48629;SDS011;34426;52.180;4.462;2022-12-10T08:09:47;122.82;;;43.83;;
48629;SDS011;34426;52.180;4.462;2022-12-10T08:12:14;112.55;;;44.20;;
48629;SDS011;34426;52.180;4.462;2022-12-10T08:14:41;136.73;;;43.38;;
48629;SDS011;34426;52.180;4.462;2022-12-10T08:17:09;94.43;;;43.95;;
48629;SDS011;34426;52.180;4.462;2022-12-10T08:19:36;89.88;;;42.45;;
48629;SDS011;34426;52.180;4.462;2022-12-10T08:22:03;146.80;;;43.22;;
48629;SDS011;34426;52.180;4.462;2022-12-10T08:24:33;101.57;;;41.53;;
48629;SDS011;34426;52.180;4.462;2022-12-10T08:27:00;127.55;;;43.35;;
48629;SDS011;34426;52.180;4.462;2022-12-10T08:29:28;125.70;;;43.83;;
48629;SDS011;34426;52.180;4.462;2022-12-10T08:31:56;111.75;;;43.25;;
48629;SDS011;34426;52.180;4.462;2022-12-10T08:34:23;111.30;;;44.88;;
48629;SDS011;34426;52.180;4.462;2022-12-10T08:36:51;102.93;;;46.13;;
48629;SDS011;34426;52.180;4.462;2022-12-10T08:39:18;126.35;;;46.00;;
48629;SDS011;34426;52.180;4.462;2022-12-10T08:41:48;132.13;;;41.95;;
48629;SDS011;34426;52.180;4.462;2022-12-10T08:44:15;107.43;;;42.40;;
48629;SDS011;34426;52.180;4.462;2022-12-10T08:46:42;94.15;;;41.60;;
48629;SDS011;34426;52.180;4.462;2022-12-10T08:49:10;142.15;;;42.50;;
48629;SDS011;34426;52.180;4.462;2022-12-10T08:51:37;98.93;;;41.30;;
48629;SDS011;34426;52.180;4.462;2022-12-10T08:54:04;114.28;;;43.13;;
48629;SDS011;34426;52.180;4.462;2022-12-10T08:56:32;111.80;;;45.38;;
48629;SDS011;34426;52.180;4.462;2022-12-10T08:59:01;96.05;;;42.17;;
48629;SDS011;34426;52.180;4.462;2022-12-10T09:01:28;127.40;;;42.85;;
48629;SDS011;34426;52.180;4.462;2022-12-10T09:03:58;118.82;;;42.90;;
48629;SDS011;34426;52.180;4.462;2022-12-10T09:06:26;103.45;;;45.22;;
48629;SDS011;34426;52.180;4.462;2022-12-10T09:08:54;99.72;;;44.97;;
48629;SDS011;34426;52.180;4.462;2022-12-10T09:11:22;105.15;;;47.00;;
48629;SDS011;34426;52.180;4.462;2022-12-10T09:13:51;131.55;;;48.50;;
48629;SDS011;34426;52.180;4.462;2022-12-10T09:16:20;120.55;;;48.17;;
48629;SDS011;34426;52.180;4.462;2022-12-10T09:18:53;112.50;;;48.58;;
48629;SDS011;34426;52.180;4.462;2022-12-10T09:21:20;128.25;;;50.63;;
48629;SDS011;34426;52.180;4.462;2022-12-10T09:23:49;125.70;;;52.42;;
48629;SDS011;34426;52.180;4.462;2022-12-10T09:26:17;153.13;;;52.15;;
48629;SDS011;34426;52.180;4.462;2022-12-10T09:28:45;255.48;;;49.15;;
48629;SDS011;34426;52.180;4.462;2022-12-10T09:31:14;131.55;;;47.80;;
48629;SDS011;34426;52.180;4.462;2022-12-10T09:33:45;130.15;;;47.25;;
48629;SDS011;34426;52.180;4.462;2022-12-10T09:36:13;110.47;;;48.05;;
48629;SDS011;34426;52.180;4.462;2022-12-10T09:38:42;119.80;;;47.40;;
48629;SDS011;34426;52.180;4.462;2022-12-10T09:41:18;105.32;;;49.85;;
48629;SDS011;34426;52.180;4.462;2022-12-10T09:44:07;117.80;;;50.00;;
48629;SDS011;34426;52.180;4.462;2022-12-10T09:46:48;120.00;;;51.22;;
48629;SDS011;34426;52.180;4.462;2022-12-10T09:51:53;128.40;;;53.25;;
48629;SDS011;34426;52.180;4.462;2022-12-10T09:54:22;122.45;;;52.95;;
48629;SDS011;34426;52.180;4.462;2022-12-10T09:56:52;155.07;;;51.28;;
48629;SDS011;34426;52.180;4.462;2022-12-10T09:59:22;137.57;;;51.25;;
48629;SDS011;34426;52.180;4.462;2022-12-10T10:01:59;153.25;;;53.03;;
48629;SDS011;34426;52.180;4.462;2022-12-10T10:04:38;117.15;;;54.13;;
48629;SDS011;34426;52.180;4.462;2022-12-10T10:07:06;134.77;;;51.90;;
48629;SDS011;34426;52.180;4.462;2022-12-10T10:09:36;114.03;;;52.63;;
48629;SDS011;34426;52.180;4.462;2022-12-10T10:12:09;117.47;;;54.85;;
48629;SDS011;34426;52.180;4.462;2022-12-10T10:14:39;127.97;;;54.10;;
48629;SDS011;34426;52.180;4.462;2022-12-10T10:17:08;150.90;;;54.35;;
48629;SDS011;34426;52.180;4.462;2022-12-10T10:19:43;116.15;;;54.80;;
48629;SDS011;34426;52.180;4.462;2022-12-10T10:22:10;113.97;;;51.80;;
48629;SDS011;34426;52.180;4.462;2022-12-10T10:24:39;108.93;;;50.40;;
48629;SDS011;34426;52.180;4.462;2022-12-10T10:27:12;116.97;;;50.03;;
48629;SDS011;34426;52.180;4.462;2022-12-10T10:29:42;113.13;;;51.92;;
48629;SDS011;34426;52.180;4.462;2022-12-10T10:32:11;225.55;;;53.17;;
48629;SDS011;34426;52.180;4.462;2022-12-10T10:34:42;141.82;;;53.03;;
48629;SDS011;34426;52.180;4.462;2022-12-10T10:37:15;127.15;;;52.80;;
48629;SDS011;34426;52.180;4.462;2022-12-10T10:39:49;119.60;;;52.08;;
48629;SDS011;34426;52.180;4.462;2022-12-10T10:42:27;129.50;;;56.23;;
48629;SDS011;34426;52.180;4.462;2022-12-10T10:45:00;117.45;;;52.47;;
48629;SDS011;34426;52.180;4.462;2022-12-10T10:47:30;124.60;;;52.72;;
48629;SDS011;34426;52.180;4.462;2022-12-10T10:50:00;139.45;;;55.30;;
48629;SDS011;34426;52.180;4.462;2022-12-10T10:52:28;144.10;;;53.97;;
48629;SDS011;34426;52.180;4.462;2022-12-10T10:54:55;122.68;;;54.33;;
48629;SDS011;34426;52.180;4.462;2022-12-10T10:57:21;137.98;;;57.17;;
48629;SDS011;34426;52.180;4.462;2022-12-10T10:59:49;122.00;;;54.35;;
48629;SDS011;34426;52.180;4.462;2022-12-10T11:02:19;127.15;;;53.20;;
48629;SDS011;34426;52.180;4.462;2022-12-10T11:04:55;116.57;;;49.65;;
48629;SDS011;34426;52.180;4.462;2022-12-10T11:07:24;110.45;;;48.35;;
48629;SDS011;34426;52.180;4.462;2022-12-10T11:09:58;108.50;;;49.33;;
48629;SDS011;34426;52.180;4.462;2022-12-10T11:12:32;103.93;;;47.53;;
48629;SDS011;34426;52.180;4.462;2022-12-10T11:15:02;110.60;;;48.65;;
48629;SDS011;34426;52.180;4.462;2022-12-10T11:17:53;105.32;;;47.63;;
48629;SDS011;34426;52.180;4.462;2022-12-10T11:20:22;94.95;;;44.13;;
48629;SDS011;34426;52.180;4.462;2022-12-10T11:22:53;97.40;;;47.35;;
48629;SDS011;34426;52.180;4.462;2022-12-10T11:25:27;111.20;;;45.10;;
48629;SDS011;34426;52.180;4.462;2022-12-10T11:28:05;108.40;;;50.22;;
48629;SDS011;34426;52.180;4.462;2022-12-10T11:30:42;105.30;;;51.67;;
48629;SDS011;34426;52.180;4.462;2022-12-10T11:33:23;115.28;;;53.53;;
48629;SDS011;34426;52.180;4.462;2022-12-10T11:36:02;112.80;;;52.47;;
48629;SDS011;34426;52.180;4.462;2022-12-10T11:38:45;115.97;;;50.95;;
48629;SDS011;34426;52.180;4.462;2022-12-10T11:41:18;114.68;;;51.80;;
48629;SDS011;34426;52.180;4.462;2022-12-10T11:44:06;106.88;;;52.22;;
48629;SDS011;34426;52.180;4.462;2022-12-10T11:46:53;108.13;;;50.38;;
48629;SDS011;34426;52.180;4.462;2022-12-10T11:49:28;108.90;;;50.10;;
48629;SDS011;34426;52.180;4.462;2022-12-10T11:52:05;107.82;;;50.40;;
48629;SDS011;34426;52.180;4.462;2022-12-10T11:54:51;114.32;;;49.42;;
48629;SDS011;34426;52.180;4.462;2022-12-10T11:57:27;104.65;;;47.92;;
48629;SDS011;34426;52.180;4.462;2022-12-10T12:00:13;113.22;;;51.97;;
48629;SDS011;34426;52.180;4.462;2022-12-10T12:02:56;108.18;;;50.58;;
48629;SDS011;34426;52.180;4.462;2022-12-10T12:05:42;102.00;;;49.13;;
48629;SDS011;34426;52.180;4.462;2022-12-10T12:08:20;123.50;;;54.13;;
48629;SDS011;34426;52.180;4.462;2022-12-10T12:13:54;96.60;;;45.70;;
48629;SDS011;34426;52.180;4.462;2022-12-10T12:16:26;95.28;;;47.22;;
48629;SDS011;34426;52.180;4.462;2022-12-10T12:18:57;92.10;;;44.13;;
48629;SDS011;34426;52.180;4.462;2022-12-10T12:21:28;94.35;;;44.72;;
48629;SDS011;34426;52.180;4.462;2022-12-10T12:23:56;104.55;;;49.42;;
48629;SDS011;34426;52.180;4.462;2022-12-10T12:26:29;110.57;;;49.40;;
48629;SDS011;34426;52.180;4.462;2022-12-10T12:29:03;108.95;;;47.63;;
48629;SDS011;34426;52.180;4.462;2022-12-10T12:31:39;106.10;;;49.70;;
48629;SDS011;34426;52.180;4.462;2022-12-10T12:34:14;106.95;;;48.72;;
48629;SDS011;34426;52.180;4.462;2022-12-10T12:36:46;112.80;;;49.22;;
48629;SDS011;34426;52.180;4.462;2022-12-10T12:39:17;103.90;;;49.75;;
48629;SDS011;34426;52.180;4.462;2022-12-10T12:41:57;107.00;;;49.50;;
48629;SDS011;34426;52.180;4.462;2022-12-10T12:44:34;111.72;;;48.10;;
48629;SDS011;34426;52.180;4.462;2022-12-10T12:47:28;109.57;;;47.20;;
48629;SDS011;34426;52.180;4.462;2022-12-10T12:50:03;104.82;;;45.15;;
48629;SDS011;34426;52.180;4.462;2022-12-10T12:52:42;104.18;;;46.53;;
48629;SDS011;34426;52.180;4.462;2022-12-10T12:55:15;96.70;;;44.10;;
48629;SDS011;34426;52.180;4.462;2022-12-10T13:00:18;108.82;;;47.25;;
48629;SDS011;34426;52.180;4.462;2022-12-10T13:02:51;123.65;;;46.92;;
48629;SDS011;34426;52.180;4.462;2022-12-10T13:05:26;101.85;;;45.90;;
48629;SDS011;34426;52.180;4.462;2022-12-10T13:10:50;101.28;;;46.75;;
48629;SDS011;34426;52.180;4.462;2022-12-10T13:13:24;109.38;;;47.30;;
48629;SDS011;34426;52.180;4.462;2022-12-10T13:15:56;111.93;;;48.67;;
48629;SDS011;34426;52.180;4.462;2022-12-10T13:18:43;101.82;;;45.85;;
48629;SDS011;34426;52.180;4.462;2022-12-10T13:24:06;93.65;;;43.88;;
48629;SDS011;34426;52.180;4.462;2022-12-10T13:26:36;106.45;;;47.50;;
48629;SDS011;34426;52.180;4.462;2022-12-10T13:29:22;110.57;;;49.28;;
48629;SDS011;34426;52.180;4.462;2022-12-10T13:32:00;114.63;;;49.38;;
48629;SDS011;34426;52.180;4.462;2022-12-10T13:34:31;110.85;;;48.15;;
48629;SDS011;34426;52.180;4.462;2022-12-10T13:37:14;108.68;;;47.80;;
48629;SDS011;34426;52.180;4.462;2022-12-10T13:39:50;113.25;;;50.47;;
48629;SDS011;34426;52.180;4.462;2022-12-10T13:42:32;116.38;;;50.65;;
48629;SDS011;34426;52.180;4.462;2022-12-10T13:45:03;113.43;;;50.60;;
48629;SDS011;34426;52.180;4.462;2022-12-10T13:47:37;113.85;;;50.38;;
48629;SDS011;34426;52.180;4.462;2022-12-10T13:50:14;116.93;;;50.35;;
48629;SDS011;34426;52.180;4.462;2022-12-10T13:52:46;111.85;;;49.22;;
48629;SDS011;34426;52.180;4.462;2022-12-10T13:55:26;119.05;;;51.65;;
48629;SDS011;34426;52.180;4.462;2022-12-10T14:01:03;111.03;;;49.50;;
48629;SDS011;34426;52.180;4.462;2022-12-10T14:03:42;112.15;;;50.80;;
48629;SDS011;34426;52.180;4.462;2022-12-10T14:06:24;115.78;;;47.67;;
48629;SDS011;34426;52.180;4.462;2022-12-10T14:08:57;119.20;;;49.17;;
48629;SDS011;34426;52.180;4.462;2022-12-10T14:11:28;110.40;;;48.83;;
48629;SDS011;34426;52.180;4.462;2022-12-10T14:13:58;113.78;;;48.42;;
48629;SDS011;34426;52.180;4.462;2022-12-10T14:16:29;107.60;;;47.60;;
48629;SDS011;34426;52.180;4.462;2022-12-10T14:19:00;110.45;;;50.67;;
48629;SDS011;34426;52.180;4.462;2022-12-10T14:21:31;113.57;;;50.13;;
48629;SDS011;34426;52.180;4.462;2022-12-10T14:24:00;109.45;;;49.47;;
48629;SDS011;34426;52.180;4.462;2022-12-10T14:26:29;114.20;;;52.25;;
48629;SDS011;34426;52.180;4.462;2022-12-10T14:28:58;113.97;;;50.03;;
48629;SDS011;34426;52.180;4.462;2022-12-10T14:31:27;113.78;;;52.22;;
48629;SDS011;34426;52.180;4.462;2022-12-10T14:34:00;119.50;;;54.20;;
48629;SDS011;34426;52.180;4.462;2022-12-10T14:36:29;111.72;;;49.92;;
48629;SDS011;34426;52.180;4.462;2022-12-10T14:38:58;122.53;;;52.88;;
48629;SDS011;34426;52.180;4.462;2022-12-10T14:41:26;122.78;;;55.22;;
48629;SDS011;34426;52.180;4.462;2022-12-10T14:43:56;111.88;;;49.90;;
48629;SDS011;34426;52.180;4.462;2022-12-10T14:46:28;108.70;;;50.07;;
48629;SDS011;34426;52.180;4.462;2022-12-10T14:48:59;111.03;;;49.80;;
48629;SDS011;34426;52.180;4.462;2022-12-10T14:51:30;106.97;;;49.03;;
48629;SDS011;34426;52.180;4.462;2022-12-10T14:53:59;108.28;;;48.63;;